createdAt,value
2022-12-20T00:02:00.251Z,92.07
2022-12-20T00:05:08.849Z,91.74
2022-12-20T00:08:19.898Z,92.05
2022-12-20T00:11:27.296Z,92.07
2022-12-20T00:14:39.175Z,91.23
2022-12-20T00:17:49.374Z,91.58
2022-12-20T00:21:02.523Z,91.54
2022-12-20T00:24:16.253Z,91.34
2022-12-20T00:27:27.028Z,90.10
2022-12-20T00:30:34.697Z,90.48
2022-12-20T00:33:43.119Z,91.14
2022-12-20T00:36:52.574Z,91.04
2022-12-20T00:40:00.161Z,91.22
2022-12-20T00:43:06.456Z,90.80
2022-12-20T00:46:16.766Z,90.85
2022-12-20T00:49:22.976Z,91.74
2022-12-20T00:52:30.880Z,91.43
2022-12-20T00:55:43.633Z,91.64
2022-12-20T00:58:52.733Z,91.34
2022-12-20T01:01:59.042Z,90.62
2022-12-20T01:05:05.567Z,91.43
2022-12-20T01:08:13.821Z,90.52
2022-12-20T01:11:24.732Z,91.08
2022-12-20T01:14:31.105Z,89.95
2022-12-20T01:17:38.895Z,91.18
2022-12-20T01:20:44.841Z,91.03
2022-12-20T01:23:51.195Z,91.54
2022-12-20T01:27:02.721Z,91.30
2022-12-20T01:30:18.574Z,91.56
2022-12-20T01:33:28.781Z,90.82
2022-12-20T01:36:48.510Z,90.96
2022-12-20T01:39:55.497Z,91.74
2022-12-20T01:43:09.411Z,91.03
2022-12-20T01:50:00.183Z,91.69
2022-12-20T01:53:19.285Z,91.20
2022-12-20T01:56:31.904Z,91.15
2022-12-20T01:59:49.464Z,91.24
2022-12-20T02:03:12.273Z,91.53
2022-12-20T02:10:05.479Z,91.62
2022-12-20T02:13:38.791Z,91.47
2022-12-20T02:17:33.545Z,91.92
2022-12-20T02:21:36.032Z,92.63
2022-12-20T02:25:28.283Z,92.01
2022-12-20T02:32:56.511Z,91.21
2022-12-20T02:36:13.914Z,91.91
2022-12-20T02:39:20.109Z,91.30
2022-12-20T02:42:30.244Z,91.27
2022-12-20T02:45:51.290Z,90.99
2022-12-20T02:49:12.130Z,90.79
2022-12-20T02:52:24.643Z,90.88
2022-12-20T02:55:51.990Z,92.04
2022-12-20T02:59:09.372Z,92.29
2022-12-20T03:02:22.099Z,92.31
2022-12-20T03:05:41.540Z,92.57
2022-12-20T03:12:35.634Z,92.98
2022-12-20T03:15:49.662Z,93.72
2022-12-20T03:19:07.053Z,92.18
2022-12-20T03:22:26.602Z,92.33
2022-12-20T03:25:34.627Z,92.04
2022-12-20T03:28:49.832Z,92.01
2022-12-20T03:32:01.207Z,91.38
2022-12-20T03:35:13.745Z,92.00
2022-12-20T03:38:23.519Z,92.35
2022-12-20T03:41:31.065Z,92.34
2022-12-20T03:44:51.779Z,92.08
2022-12-20T03:47:58.579Z,91.71
2022-12-20T03:51:06.137Z,92.47
2022-12-20T03:54:20.057Z,91.57
2022-12-20T03:57:37.074Z,91.69
2022-12-20T04:00:47.236Z,91.41
2022-12-20T04:03:54.091Z,90.87
2022-12-20T04:07:02.430Z,89.92
2022-12-20T04:10:13.108Z,89.61
2022-12-20T04:13:19.471Z,90.24
2022-12-20T04:16:28.734Z,90.42
2022-12-20T04:19:40.027Z,90.03
2022-12-20T04:22:50.663Z,91.06
2022-12-20T04:26:03.785Z,90.76
2022-12-20T04:29:13.075Z,90.53
2022-12-20T04:32:24.826Z,89.98
2022-12-20T04:35:32.347Z,90.37
2022-12-20T04:38:41.467Z,89.85
2022-12-20T04:41:55.152Z,89.00
2022-12-20T04:45:03.722Z,89.39
2022-12-20T04:48:45.937Z,89.96
2022-12-20T04:51:43.385Z,89.73
2022-12-20T04:54:49.558Z,88.54
2022-12-20T04:58:07.298Z,88.98
2022-12-20T05:01:14.538Z,88.78
2022-12-20T05:04:21.460Z,89.12
2022-12-20T05:07:28.417Z,88.73
2022-12-20T05:10:35.320Z,89.48
2022-12-20T05:13:44.406Z,89.55
2022-12-20T05:16:53.948Z,89.23
2022-12-20T05:20:00.630Z,89.52
2022-12-20T05:23:24.540Z,89.56
2022-12-20T05:26:32.789Z,89.38
2022-12-20T05:29:40.394Z,89.81
2022-12-20T05:32:46.819Z,89.55
2022-12-20T05:35:56.359Z,90.09
2022-12-20T05:39:04.796Z,89.66
2022-12-20T05:42:11.379Z,90.36
2022-12-20T05:45:20.700Z,90.21
2022-12-20T05:48:28.606Z,90.45
2022-12-20T05:51:37.139Z,89.85
2022-12-20T05:54:43.210Z,90.73
2022-12-20T05:57:49.490Z,90.17
2022-12-20T06:00:57.294Z,90.58
2022-12-20T06:04:09.383Z,90.46
2022-12-20T06:07:15.668Z,90.38
2022-12-20T06:10:21.743Z,91.19
2022-12-20T06:13:30.245Z,90.36
2022-12-20T06:16:38.634Z,89.92
2022-12-20T06:19:44.505Z,90.14
2022-12-20T06:22:51.075Z,90.88
2022-12-20T06:25:59.189Z,90.71
2022-12-20T06:29:05.578Z,90.04
2022-12-20T06:32:16.336Z,90.60
2022-12-20T06:35:31.316Z,90.90
2022-12-20T06:42:15.476Z,90.28
2022-12-20T06:45:41.833Z,90.78
2022-12-20T06:49:19.561Z,90.64
2022-12-20T06:52:31.203Z,90.38
2022-12-20T06:55:52.681Z,90.54
2022-12-20T06:59:03.919Z,91.04
2022-12-20T07:02:52.661Z,90.34
2022-12-20T07:06:20.949Z,90.70
2022-12-20T07:09:38.468Z,90.84
2022-12-20T07:13:05.481Z,90.37
2022-12-20T07:16:19.682Z,91.07
2022-12-20T07:19:27.808Z,90.55
2022-12-20T07:22:49.574Z,91.48
2022-12-20T07:26:01.885Z,90.85
2022-12-20T07:29:15.040Z,91.08
2022-12-20T07:32:21.474Z,92.10
2022-12-20T07:35:28.579Z,91.56
2022-12-20T07:38:38.959Z,90.97
2022-12-20T07:41:46.173Z,90.46
2022-12-20T07:44:52.510Z,89.75
2022-12-20T07:48:09.179Z,90.03
2022-12-20T07:51:21.733Z,90.03
2022-12-20T07:54:33.396Z,89.75
2022-12-20T07:57:47.195Z,89.58
2022-12-20T08:00:54.684Z,89.82
2022-12-20T08:04:14.243Z,89.51
2022-12-20T08:07:21.514Z,88.82
2022-12-20T08:10:30.191Z,88.42
2022-12-20T08:13:46.032Z,88.74
2022-12-20T08:16:53.728Z,88.44
2022-12-20T08:20:02.347Z,88.54
2022-12-20T08:23:08.631Z,87.95
2022-12-20T08:26:24.118Z,87.90
2022-12-20T08:29:34.577Z,87.77
2022-12-20T08:32:56.096Z,88.33
2022-12-20T08:36:12.595Z,87.74
2022-12-20T08:39:23.061Z,87.96
2022-12-20T08:42:39.707Z,87.31
2022-12-20T08:45:59.169Z,87.57
2022-12-20T08:49:14.241Z,87.10
2022-12-20T08:52:42.690Z,87.96
2022-12-20T08:55:58.154Z,87.93
2022-12-20T08:59:27.801Z,87.27
2022-12-20T09:02:59.174Z,87.03
2022-12-20T09:06:15.137Z,87.08
2022-12-20T09:09:28.168Z,86.77
2022-12-20T09:16:51.283Z,86.07
2022-12-20T09:27:57.288Z,87.44
2022-12-20T09:31:13.436Z,87.89
2022-12-20T09:35:08.395Z,88.33
2022-12-20T09:41:55.844Z,87.28
2022-12-20T09:45:32.562Z,87.16
2022-12-20T09:49:06.314Z,87.39
2022-12-20T09:52:54.234Z,87.60
2022-12-20T09:56:17.150Z,87.85
2022-12-20T09:59:49.042Z,87.53
2022-12-20T10:03:11.145Z,87.97
2022-12-20T10:06:42.451Z,87.05
2022-12-20T10:10:47.814Z,86.65
2022-12-20T10:14:14.803Z,86.65
2022-12-20T10:21:05.613Z,86.24
2022-12-20T10:24:29.039Z,86.43
2022-12-20T10:27:44.926Z,86.46
2022-12-20T10:30:52.107Z,87.08
2022-12-20T10:34:04.984Z,87.22
2022-12-20T10:37:27.037Z,87.40
2022-12-20T10:44:26.581Z,88.21
2022-12-20T10:47:43.526Z,87.49
2022-12-20T10:51:04.109Z,87.17
2022-12-20T10:54:32.220Z,87.14
2022-12-20T10:57:38.323Z,87.20
2022-12-20T11:00:47.839Z,85.27
2022-12-20T11:04:02.349Z,84.69
2022-12-20T11:07:28.137Z,85.46
2022-12-20T11:10:34.965Z,85.36
2022-12-20T11:13:41.813Z,85.40
2022-12-20T11:16:54.436Z,85.47
2022-12-20T11:20:17.723Z,85.57
2022-12-20T11:23:38.281Z,85.75
2022-12-20T11:27:38.181Z,85.03
2022-12-20T11:31:05.877Z,85.21
2022-12-20T11:34:56.177Z,85.97
2022-12-20T11:38:19.358Z,85.99
2022-12-20T11:41:49.799Z,86.35
2022-12-20T11:45:08.850Z,86.85
2022-12-20T11:48:39.171Z,85.03
2022-12-20T11:51:52.933Z,84.62
2022-12-20T11:55:10.985Z,84.45
2022-12-20T11:58:28.611Z,84.33
2022-12-20T12:01:44.507Z,83.01
2022-12-20T12:04:56.708Z,82.99
2022-12-20T12:08:13.481Z,83.52
2022-12-20T12:12:04.712Z,83.39
2022-12-20T12:15:01.178Z,82.47
2022-12-20T12:18:21.780Z,81.48
2022-12-20T12:21:30.611Z,81.76
2022-12-20T12:24:44.722Z,82.36
2022-12-20T12:27:51.227Z,81.87
2022-12-20T12:31:02.885Z,81.53
2022-12-20T12:34:20.665Z,80.67
2022-12-20T12:37:55.581Z,81.49
2022-12-20T12:41:31.211Z,81.91
2022-12-20T12:44:53.556Z,81.09
2022-12-20T12:48:05.039Z,81.46
2022-12-20T12:51:13.658Z,81.68
2022-12-20T12:54:24.814Z,81.36
2022-12-20T12:57:54.229Z,81.29
2022-12-20T13:01:05.693Z,81.25
2022-12-20T13:04:27.183Z,81.24
2022-12-20T13:07:46.317Z,80.26
2022-12-20T13:11:16.517Z,81.06
2022-12-20T13:14:55.242Z,80.89
2022-12-20T13:18:03.426Z,81.25
2022-12-20T13:21:32.664Z,81.24
2022-12-20T13:24:41.651Z,81.16
2022-12-20T13:27:48.287Z,81.57
2022-12-20T13:31:35.809Z,82.82
2022-12-20T13:34:59.280Z,82.92
2022-12-20T13:38:09.423Z,83.13
2022-12-20T13:41:34.754Z,83.78
2022-12-20T13:44:47.773Z,83.06
2022-12-20T13:48:11.063Z,83.55
2022-12-20T13:51:22.168Z,83.85
2022-12-20T13:54:31.144Z,82.63
2022-12-20T13:57:47.578Z,81.58
2022-12-20T14:01:00.962Z,80.89
2022-12-20T14:04:11.221Z,81.83
2022-12-20T14:07:22.833Z,82.23
2022-12-20T14:10:32.599Z,82.41
2022-12-20T14:13:44.685Z,83.03
2022-12-20T14:16:51.321Z,82.38
2022-12-20T14:20:27.954Z,81.12
2022-12-20T14:23:41.183Z,81.18
2022-12-20T14:26:55.495Z,80.97
2022-12-20T14:30:03.465Z,80.87
2022-12-20T14:33:19.295Z,80.69
2022-12-20T14:36:28.624Z,81.18
2022-12-20T14:39:37.771Z,79.79
2022-12-20T14:42:47.446Z,80.10
2022-12-20T14:46:11.355Z,79.97
2022-12-20T14:49:31.815Z,79.49
2022-12-20T14:52:41.069Z,79.21
2022-12-20T14:55:49.385Z,80.35
2022-12-20T14:59:14.452Z,79.99
2022-12-20T15:02:39.264Z,80.05
2022-12-20T15:05:46.795Z,80.03
2022-12-20T15:08:54.813Z,80.03
2022-12-20T15:12:01.828Z,80.45
2022-12-20T15:15:28.302Z,81.32
2022-12-20T15:18:35.632Z,81.21
2022-12-20T15:21:44.359Z,80.92
2022-12-20T15:24:49.215Z,81.22
2022-12-20T15:27:52.247Z,80.96
2022-12-20T15:30:55.744Z,81.56
2022-12-20T15:33:58.478Z,81.49
2022-12-20T15:37:02.402Z,81.38
2022-12-20T15:40:07.967Z,81.12
2022-12-20T15:43:14.590Z,81.30
2022-12-20T15:46:17.354Z,81.66
2022-12-20T15:49:22.266Z,81.19
2022-12-20T15:52:25.054Z,81.64
2022-12-20T15:55:32.931Z,81.26
2022-12-20T15:58:38.620Z,80.97
2022-12-20T16:01:41.533Z,81.01
2022-12-20T16:04:44.666Z,81.79
2022-12-20T16:07:47.663Z,81.09
2022-12-20T16:10:53.343Z,81.32
2022-12-20T16:13:56.579Z,81.81
2022-12-20T16:16:59.367Z,82.44
2022-12-20T16:20:02.030Z,83.31
2022-12-20T16:23:05.018Z,83.41
2022-12-20T16:26:13.323Z,83.45
2022-12-20T16:29:15.957Z,83.21
2022-12-20T16:32:21.591Z,83.96
2022-12-20T16:35:30.715Z,84.51
2022-12-20T16:38:33.325Z,84.90
2022-12-20T16:41:40.325Z,85.31
2022-12-20T16:44:45.089Z,85.80
2022-12-20T16:47:49.295Z,86.26
2022-12-20T16:50:52.017Z,86.04
2022-12-20T16:54:18.155Z,86.00
2022-12-20T16:57:21.188Z,86.67
2022-12-20T17:00:26.851Z,86.54
2022-12-20T17:03:29.742Z,86.18
2022-12-20T17:06:32.816Z,85.97
2022-12-20T17:12:57.974Z,86.37
2022-12-20T17:16:01.613Z,86.30
2022-12-20T17:19:05.485Z,86.22
2022-12-20T17:22:23.818Z,85.88
2022-12-20T17:25:28.814Z,85.76
2022-12-20T17:28:32.919Z,86.53
2022-12-20T17:31:39.159Z,87.03
2022-12-20T17:34:42.359Z,87.34
2022-12-20T17:37:44.990Z,87.18
2022-12-20T17:40:47.673Z,87.24
2022-12-20T17:43:52.507Z,86.95
2022-12-20T17:46:57.150Z,86.79
2022-12-20T17:50:00.602Z,86.95
2022-12-20T17:53:04.018Z,87.49
2022-12-20T17:56:07.205Z,87.60
2022-12-20T17:59:13.092Z,88.14
2022-12-20T18:02:22.339Z,88.22
2022-12-20T18:05:25.878Z,87.57
2022-12-20T18:08:28.485Z,88.47
2022-12-20T18:11:32.784Z,88.42
2022-12-20T18:14:36.802Z,88.44
2022-12-20T18:17:39.607Z,88.27
2022-12-20T18:20:42.409Z,88.59
2022-12-20T18:23:46.592Z,88.42
2022-12-20T18:26:49.600Z,88.41
2022-12-20T18:29:54.395Z,88.19
2022-12-20T18:32:57.139Z,87.89
2022-12-20T18:36:01.847Z,87.87
2022-12-20T18:39:07.430Z,87.89
2022-12-20T18:42:10.204Z,87.70
2022-12-20T18:45:14.183Z,87.78
2022-12-20T18:48:16.841Z,87.72
2022-12-20T18:51:21.703Z,87.79
2022-12-20T18:54:24.310Z,87.76
2022-12-20T18:57:26.943Z,87.17
2022-12-20T19:00:31.114Z,87.05
2022-12-20T19:03:34.055Z,87.29
2022-12-20T19:06:37.957Z,87.67
2022-12-20T19:09:40.668Z,87.72
2022-12-20T19:12:43.398Z,87.81
2022-12-20T19:15:48.151Z,88.17
2022-12-20T19:18:51.742Z,88.59
2022-12-20T19:21:54.495Z,88.67
2022-12-20T19:24:57.864Z,88.60
2022-12-20T19:28:00.850Z,88.52
2022-12-20T19:31:11.991Z,88.68
2022-12-20T19:34:18.407Z,89.06
2022-12-20T19:37:21.011Z,89.60
2022-12-20T19:40:23.667Z,89.69
2022-12-20T19:43:26.380Z,89.96
2022-12-20T19:46:30.990Z,90.03
2022-12-20T19:49:35.403Z,90.44
2022-12-20T19:52:38.566Z,90.31
2022-12-20T19:55:41.586Z,90.54
2022-12-20T19:58:44.877Z,90.82
2022-12-20T20:01:49.240Z,91.05
2022-12-20T20:04:52.064Z,90.86
2022-12-20T20:07:54.702Z,90.82
2022-12-20T20:11:03.824Z,90.80
2022-12-20T20:14:10.288Z,90.34
2022-12-20T20:17:14.875Z,90.64
2022-12-20T20:20:17.871Z,90.76
2022-12-20T20:23:20.698Z,90.97
2022-12-20T20:26:25.640Z,91.27
2022-12-20T20:29:28.324Z,91.36
2022-12-20T20:32:32.774Z,91.29
2022-12-20T20:35:35.465Z,91.36
2022-12-20T20:38:38.145Z,91.80
2022-12-20T20:41:40.814Z,91.61
2022-12-20T20:44:43.877Z,91.32
2022-12-20T20:47:48.124Z,91.19
2022-12-20T20:50:50.764Z,91.62
2022-12-20T20:53:53.522Z,91.98
2022-12-20T20:56:56.573Z,92.48
2022-12-20T20:59:59.258Z,93.08
2022-12-20T21:03:03.499Z,93.59
2022-12-20T21:06:39.314Z,93.31
2022-12-20T21:09:30.656Z,94.05
2022-12-20T21:12:33.336Z,94.67
2022-12-20T21:15:36.233Z,94.89
2022-12-20T21:18:41.057Z,95.56
2022-12-20T21:21:43.716Z,95.57
2022-12-20T21:24:46.474Z,95.91
2022-12-20T21:27:49.144Z,96.92
2022-12-20T21:30:59.554Z,96.86
2022-12-20T21:34:03.664Z,97.27
2022-12-20T21:37:06.985Z,97.53
2022-12-20T21:40:11.035Z,97.83
2022-12-20T21:43:14.142Z,97.85
2022-12-20T21:46:17.227Z,98.10
2022-12-20T21:49:21.528Z,97.94
2022-12-20T21:52:24.211Z,98.00
2022-12-20T21:55:27.283Z,98.35
2022-12-20T21:58:31.537Z,98.20
2022-12-20T22:01:37.160Z,97.59
2022-12-20T22:04:41.909Z,97.49
2022-12-20T22:07:46.728Z,97.82
2022-12-20T22:10:50.269Z,98.13
2022-12-20T22:13:55.561Z,98.71
2022-12-20T22:16:58.249Z,98.76
2022-12-20T22:20:02.199Z,98.89
2022-12-20T22:23:05.414Z,99.09
2022-12-20T22:26:10.581Z,98.95
2022-12-20T22:29:13.179Z,98.87
2022-12-20T22:32:16.228Z,99.17
2022-12-20T22:35:22.950Z,99.51
2022-12-20T22:38:25.865Z,99.57
2022-12-20T22:41:30.264Z,99.67
2022-12-20T22:44:32.989Z,100.00
2022-12-20T22:47:36.004Z,99.58
2022-12-20T22:50:40.029Z,99.61
2022-12-20T22:53:43.203Z,99.57
2022-12-20T22:56:45.898Z,99.78
2022-12-20T22:59:48.562Z,99.89
2022-12-20T23:02:54.164Z,99.38
2022-12-20T23:06:02.603Z,98.55
2022-12-20T23:09:05.289Z,97.81
2022-12-20T23:12:27.144Z,97.12
2022-12-20T23:15:42.002Z,96.23
2022-12-20T23:18:44.759Z,96.57
2022-12-20T23:22:06.580Z,96.40
2022-12-20T23:25:13.443Z,96.51
2022-12-20T23:28:16.115Z,96.23
2022-12-20T23:31:18.763Z,96.03
2022-12-20T23:34:21.639Z,96.24
2022-12-20T23:37:25.717Z,95.71
2022-12-20T23:40:28.463Z,95.56
2022-12-20T23:43:31.160Z,95.37
2022-12-20T23:46:34.812Z,95.13
2022-12-20T23:49:37.505Z,95.03
2022-12-20T23:52:41.560Z,95.00
2022-12-20T23:55:44.245Z,95.51
2022-12-20T23:58:50.911Z,94.92
